createdAt,value
2017-10-25T00:02:21.416Z,11.70
2017-10-25T00:04:47.756Z,12.07
2017-10-25T00:07:14.112Z,10.30
2017-10-25T00:09:40.464Z,11.50
2017-10-25T00:12:06.829Z,10.60
2017-10-25T00:14:33.962Z,10.97
2017-10-25T00:17:00.300Z,9.83
2017-10-25T00:19:26.857Z,12.63
2017-10-25T00:21:53.197Z,10.53
2017-10-25T00:24:19.575Z,11.50
2017-10-25T00:26:45.908Z,11.10
2017-10-25T00:29:12.240Z,10.87
2017-10-25T00:31:38.636Z,10.80
2017-10-25T00:34:05.036Z,9.90
2017-10-25T00:36:31.390Z,10.70
2017-10-25T00:38:57.792Z,9.00
2017-10-25T00:41:24.189Z,9.60
2017-10-25T00:43:50.568Z,9.47
2017-10-25T00:46:16.986Z,10.43
2017-10-25T00:48:50.939Z,8.63
2017-10-25T00:51:17.327Z,8.17
2017-10-25T00:53:43.752Z,8.23
2017-10-25T00:56:10.171Z,10.63
2017-10-25T00:58:36.528Z,9.80
2017-10-25T01:01:02.969Z,10.30
2017-10-25T01:03:29.472Z,8.80
2017-10-25T01:05:55.840Z,10.03
2017-10-25T01:08:22.239Z,8.57
2017-10-25T01:10:49.348Z,9.77
2017-10-25T01:13:15.747Z,9.60
2017-10-25T01:15:42.874Z,8.30
2017-10-25T01:18:09.273Z,8.07
2017-10-25T01:20:35.674Z,8.90
2017-10-25T01:23:02.068Z,7.50
2017-10-25T01:25:28.452Z,10.10
2017-10-25T01:27:54.867Z,8.40
2017-10-25T01:30:21.251Z,9.90
2017-10-25T01:32:48.411Z,8.33
2017-10-25T01:35:14.785Z,8.20
2017-10-25T01:37:41.886Z,10.50
2017-10-25T01:40:08.349Z,8.97
2017-10-25T01:42:34.752Z,10.00
2017-10-25T01:45:01.148Z,7.67
2017-10-25T01:47:27.519Z,9.70
2017-10-25T01:49:53.963Z,9.97
2017-10-25T01:52:20.395Z,8.97
2017-10-25T01:54:47.553Z,9.67
2017-10-25T01:57:14.675Z,9.40
2017-10-25T01:59:41.092Z,10.73
2017-10-25T02:02:07.518Z,9.43
2017-10-25T02:04:34.652Z,9.90
2017-10-25T02:07:01.028Z,9.80
2017-10-25T02:09:27.431Z,9.40
2017-10-25T02:11:53.818Z,9.80
2017-10-25T02:14:20.200Z,8.87
2017-10-25T02:16:46.630Z,9.30
2017-10-25T02:19:13.006Z,9.90
2017-10-25T02:21:39.657Z,8.80
2017-10-25T02:24:05.981Z,8.27
2017-10-25T02:26:32.357Z,9.10
2017-10-25T02:28:58.700Z,8.13
2017-10-25T02:31:25.069Z,8.40
2017-10-25T02:33:51.448Z,8.47
2017-10-25T02:36:17.824Z,8.60
2017-10-25T02:38:44.173Z,8.93
2017-10-25T02:41:11.300Z,7.90
2017-10-25T02:43:37.653Z,7.83
2017-10-25T02:46:04.042Z,8.80
2017-10-25T02:48:31.145Z,7.30
2017-10-25T02:50:57.545Z,8.77
2017-10-25T02:53:24.655Z,7.70
2017-10-25T02:55:51.031Z,7.50
2017-10-25T02:58:18.156Z,7.70
2017-10-25T03:00:44.538Z,7.77
2017-10-25T03:03:10.876Z,7.60
2017-10-25T03:05:37.994Z,7.70
2017-10-25T03:08:04.329Z,6.90
2017-10-25T03:10:30.684Z,7.37
2017-10-25T03:12:57.055Z,6.70
2017-10-25T03:15:23.457Z,7.33
2017-10-25T03:17:49.812Z,6.00
2017-10-25T03:20:16.209Z,6.57
2017-10-25T03:22:42.570Z,6.77
2017-10-25T03:25:08.966Z,6.50
2017-10-25T03:27:35.271Z,8.30
2017-10-25T03:30:02.445Z,8.93
2017-10-25T03:32:28.826Z,8.60
2017-10-25T03:34:55.949Z,8.97
2017-10-25T03:37:22.328Z,8.00
2017-10-25T03:39:48.687Z,8.20
2017-10-25T03:42:15.097Z,8.40
2017-10-25T03:44:41.464Z,9.10
2017-10-25T03:47:07.909Z,8.50
2017-10-25T03:49:34.279Z,8.00
2017-10-25T03:52:01.404Z,9.93
2017-10-25T03:54:27.780Z,9.17
2017-10-25T03:56:54.175Z,9.53
2017-10-25T03:59:20.614Z,8.40
2017-10-25T04:01:46.954Z,8.40
2017-10-25T04:04:13.326Z,8.50
2017-10-25T04:06:39.672Z,9.10
2017-10-25T04:09:06.818Z,9.37
2017-10-25T04:11:33.192Z,9.10
2017-10-25T04:13:59.621Z,9.40
2017-10-25T04:16:26.012Z,9.30
2017-10-25T04:18:52.440Z,10.00
2017-10-25T04:21:18.824Z,9.70
2017-10-25T04:23:45.230Z,9.47
2017-10-25T04:26:11.646Z,8.37
2017-10-25T04:28:38.769Z,8.37
2017-10-25T04:31:05.320Z,8.67
2017-10-25T04:33:31.719Z,9.33
2017-10-25T04:35:58.178Z,8.70
2017-10-25T04:38:25.269Z,8.13
2017-10-25T04:40:51.640Z,8.07
2017-10-25T04:43:18.016Z,8.63
2017-10-25T04:45:44.413Z,9.53
2017-10-25T04:48:10.887Z,9.23
2017-10-25T04:50:38.000Z,8.70
2017-10-25T04:53:04.424Z,9.70
2017-10-25T04:55:30.879Z,8.80
2017-10-25T04:57:57.287Z,10.33
2017-10-25T05:00:23.711Z,8.23
2017-10-25T05:02:51.020Z,9.00
2017-10-25T05:05:18.135Z,9.23
2017-10-25T05:07:44.481Z,8.67
2017-10-25T05:10:10.876Z,7.77
2017-10-25T05:12:37.220Z,7.70
2017-10-25T05:15:03.615Z,9.20
2017-10-25T05:17:29.979Z,8.73
2017-10-25T05:19:56.376Z,8.00
2017-10-25T05:22:22.779Z,8.07
2017-10-25T05:24:49.182Z,9.13
2017-10-25T05:27:16.331Z,7.27
2017-10-25T05:29:42.769Z,8.10
2017-10-25T05:32:09.156Z,8.90
2017-10-25T05:34:35.561Z,7.77
2017-10-25T05:37:02.025Z,7.20
2017-10-25T05:39:28.403Z,7.43
2017-10-25T05:41:55.552Z,8.10
2017-10-25T05:44:22.726Z,8.13
2017-10-25T05:46:49.177Z,9.27
2017-10-25T05:49:16.394Z,8.30
2017-10-25T05:51:42.875Z,7.00
2017-10-25T05:54:10.121Z,7.00
2017-10-25T05:56:37.378Z,7.80
2017-10-25T05:59:04.603Z,8.13
2017-10-25T06:01:31.075Z,7.33
2017-10-25T06:03:57.563Z,7.37
2017-10-25T06:06:24.055Z,6.80
2017-10-25T06:08:50.577Z,6.83
2017-10-25T06:11:17.025Z,7.30
2017-10-25T06:13:43.540Z,7.47
2017-10-25T06:16:10.005Z,7.07
2017-10-25T06:18:37.235Z,6.40
2017-10-25T06:21:03.715Z,7.43
2017-10-25T06:23:30.241Z,6.27
2017-10-25T06:25:56.713Z,6.50
2017-10-25T06:28:23.141Z,7.60
2017-10-25T06:30:49.580Z,6.17
2017-10-25T06:33:16.097Z,6.17
2017-10-25T06:35:42.596Z,6.40
2017-10-25T06:38:09.044Z,6.57
2017-10-25T06:40:35.611Z,6.13
2017-10-25T06:43:02.816Z,6.70
2017-10-25T06:45:31.038Z,5.67
2017-10-25T06:47:59.006Z,6.17
2017-10-25T06:50:26.680Z,7.53
2017-10-25T06:52:54.563Z,5.43
2017-10-25T06:55:21.739Z,6.00
2017-10-25T06:57:49.042Z,6.30
2017-10-25T07:00:18.696Z,5.30
2017-10-25T07:02:46.279Z,6.37
2017-10-25T07:05:13.557Z,6.37
2017-10-25T07:07:40.765Z,5.37
2017-10-25T07:10:07.896Z,6.10
2017-10-25T07:12:34.305Z,5.40
2017-10-25T07:15:00.805Z,5.00
2017-10-25T07:17:28.964Z,4.90
2017-10-25T07:19:55.405Z,4.80
2017-10-25T07:22:22.617Z,5.00
2017-10-25T07:24:49.728Z,4.97
2017-10-25T07:27:16.163Z,4.43
2017-10-25T07:29:42.578Z,5.70
2017-10-25T07:32:09.745Z,4.43
2017-10-25T07:34:36.881Z,5.27
2017-10-25T07:37:03.302Z,5.40
2017-10-25T07:39:29.887Z,4.93
2017-10-25T07:41:56.600Z,4.20
2017-10-25T07:44:23.039Z,5.17
2017-10-25T07:46:49.484Z,5.13
2017-10-25T07:49:16.658Z,5.83
2017-10-25T07:51:43.827Z,5.03
2017-10-25T07:54:11.002Z,5.40
2017-10-25T07:56:37.489Z,5.50
2017-10-25T07:59:03.942Z,5.70
2017-10-25T08:01:31.164Z,4.83
2017-10-25T08:03:57.644Z,4.53
2017-10-25T08:06:24.061Z,5.23
2017-10-25T08:08:50.518Z,5.17
2017-10-25T08:11:17.055Z,4.80
2017-10-25T08:13:43.549Z,5.13
2017-10-25T08:16:10.333Z,5.47
2017-10-25T08:18:36.759Z,4.53
2017-10-25T08:21:03.224Z,4.40
2017-10-25T08:23:29.633Z,5.00
2017-10-25T08:25:56.126Z,5.07
2017-10-25T08:28:22.591Z,4.70
2017-10-25T08:30:49.062Z,5.40
2017-10-25T08:33:15.698Z,5.00
2017-10-25T08:35:42.913Z,5.23
2017-10-25T08:38:09.371Z,5.33
2017-10-25T08:40:36.522Z,5.70
2017-10-25T08:43:03.032Z,4.83
2017-10-25T08:45:29.528Z,5.73
2017-10-25T08:47:56.023Z,6.90
2017-10-25T08:50:22.451Z,4.67
2017-10-25T08:52:48.921Z,5.77
2017-10-25T08:55:15.436Z,4.90
2017-10-25T08:57:41.840Z,4.90
2017-10-25T09:00:08.321Z,4.87
2017-10-25T09:02:35.894Z,4.50
2017-10-25T09:05:06.311Z,4.20
2017-10-25T09:07:34.484Z,4.80
2017-10-25T09:10:00.988Z,4.10
2017-10-25T09:12:27.455Z,4.87
2017-10-25T09:14:53.998Z,4.20
2017-10-25T09:17:20.438Z,3.73
2017-10-25T09:19:46.936Z,3.90
2017-10-25T09:22:13.347Z,5.43
2017-10-25T09:24:39.752Z,3.83
2017-10-25T09:27:06.376Z,3.67
2017-10-25T09:29:33.841Z,3.90
2017-10-25T09:32:00.972Z,3.70
2017-10-25T09:34:27.688Z,4.20
2017-10-25T09:36:57.960Z,4.53
2017-10-25T09:39:28.476Z,3.57
2017-10-25T09:41:58.166Z,4.53
2017-10-25T09:44:25.368Z,4.03
2017-10-25T09:46:52.657Z,3.80
2017-10-25T09:49:19.256Z,4.50
2017-10-25T09:51:45.685Z,3.73
2017-10-25T09:54:12.107Z,4.20
2017-10-25T09:56:38.694Z,4.97
2017-10-25T09:59:06.546Z,3.80
2017-10-25T10:01:33.776Z,4.17
2017-10-25T10:04:00.997Z,3.53
2017-10-25T10:06:27.487Z,4.00
2017-10-25T10:09:00.055Z,3.60
2017-10-25T10:11:27.814Z,4.30
2017-10-25T10:13:56.963Z,4.80
2017-10-25T10:16:23.996Z,4.20
2017-10-25T10:18:51.064Z,4.13
2017-10-25T10:21:18.107Z,4.50
2017-10-25T10:23:47.534Z,4.13
2017-10-25T10:26:14.940Z,4.47
2017-10-25T10:28:41.427Z,3.80
2017-10-25T10:31:07.889Z,4.07
2017-10-25T10:33:34.846Z,3.70
2017-10-25T10:36:01.635Z,4.60
2017-10-25T10:38:31.120Z,3.70
2017-10-25T10:40:58.031Z,5.00
2017-10-25T10:43:25.216Z,4.20
2017-10-25T10:45:52.612Z,4.33
2017-10-25T10:48:20.257Z,4.50
2017-10-25T10:50:46.946Z,4.33
2017-10-25T10:53:13.347Z,4.63
2017-10-25T10:55:39.836Z,3.90
2017-10-25T10:58:13.799Z,4.30
2017-10-25T11:00:41.383Z,4.60
2017-10-25T11:03:08.349Z,5.03
2017-10-25T11:05:35.570Z,4.13
2017-10-25T11:08:02.840Z,3.67
2017-10-25T11:10:29.821Z,4.80
2017-10-25T11:12:57.048Z,4.10
2017-10-25T11:15:23.521Z,4.80
2017-10-25T11:17:49.965Z,5.30
2017-10-25T11:20:16.404Z,4.73
2017-10-25T11:22:42.875Z,5.00
2017-10-25T11:25:09.318Z,5.40
2017-10-25T11:27:36.463Z,5.20
2017-10-25T11:30:04.095Z,4.60
2017-10-25T11:32:30.588Z,4.90
2017-10-25T11:34:59.036Z,4.33
2017-10-25T11:37:25.458Z,4.43
2017-10-25T11:39:51.904Z,4.70
2017-10-25T11:42:18.315Z,4.30
2017-10-25T11:44:44.759Z,4.70
2017-10-25T11:47:11.164Z,4.30
2017-10-25T11:49:38.581Z,4.90
2017-10-25T11:52:05.059Z,4.57
2017-10-25T11:54:32.162Z,4.37
2017-10-25T11:56:58.658Z,4.93
2017-10-25T11:59:25.892Z,4.77
2017-10-25T12:01:52.352Z,4.53
2017-10-25T12:04:18.804Z,5.13
2017-10-25T12:06:46.010Z,4.10
2017-10-25T12:09:12.704Z,4.53
2017-10-25T12:11:41.923Z,4.67
2017-10-25T12:14:09.059Z,4.40
2017-10-25T12:16:35.463Z,4.50
2017-10-25T12:19:03.279Z,5.57
2017-10-25T12:21:30.049Z,5.40
2017-10-25T12:23:56.607Z,5.03
2017-10-25T12:26:23.792Z,4.90
2017-10-25T12:28:50.247Z,4.87
2017-10-25T12:31:17.392Z,4.40
2017-10-25T12:33:47.174Z,5.13
2017-10-25T12:36:13.603Z,7.07
2017-10-25T12:38:40.060Z,6.30
2017-10-25T12:41:07.170Z,5.87
2017-10-25T12:43:34.504Z,4.40
2017-10-25T12:46:01.014Z,4.40
2017-10-25T12:48:29.159Z,5.87
2017-10-25T12:50:56.340Z,5.07
2017-10-25T12:53:25.713Z,4.97
2017-10-25T12:55:52.230Z,4.30
2017-10-25T12:58:18.987Z,5.23
2017-10-25T13:00:45.561Z,4.80
2017-10-25T13:03:12.016Z,4.80
2017-10-25T13:05:38.489Z,5.20
2017-10-25T13:08:06.960Z,4.93
2017-10-25T13:10:38.155Z,4.33
2017-10-25T13:13:07.980Z,5.83
2017-10-25T13:15:37.341Z,5.43
2017-10-25T13:18:08.237Z,4.63
2017-10-25T13:20:37.536Z,6.33
2017-10-25T13:23:03.949Z,5.07
2017-10-25T13:25:30.379Z,4.80
2017-10-25T13:27:59.176Z,6.70
2017-10-25T13:30:25.602Z,5.67
2017-10-25T13:32:55.024Z,6.50
2017-10-25T13:35:21.447Z,5.07
2017-10-25T13:37:47.863Z,6.50
2017-10-25T13:40:14.335Z,6.40
2017-10-25T13:42:40.743Z,6.50
2017-10-25T13:45:08.140Z,5.60
2017-10-25T13:47:35.257Z,7.33
2017-10-25T13:50:01.713Z,7.37
2017-10-25T13:52:28.146Z,7.00
2017-10-25T13:54:54.599Z,7.47
2017-10-25T13:57:21.050Z,6.37
2017-10-25T13:59:48.288Z,6.80
2017-10-25T14:02:16.022Z,7.53
2017-10-25T14:04:42.493Z,6.73
2017-10-25T14:07:09.312Z,6.33
2017-10-25T14:09:36.568Z,6.33
2017-10-25T14:12:03.927Z,6.20
2017-10-25T14:14:30.357Z,5.43
2017-10-25T14:16:56.823Z,4.93
2017-10-25T14:19:23.229Z,5.57
2017-10-25T14:21:51.266Z,6.30
2017-10-25T14:24:18.032Z,5.57
2017-10-25T14:26:56.881Z,6.77
2017-10-25T14:29:23.254Z,5.33
2017-10-25T14:31:49.706Z,7.03
2017-10-25T14:34:16.858Z,6.33
2017-10-25T14:36:43.292Z,6.90
2017-10-25T14:39:09.759Z,6.33
2017-10-25T14:41:36.168Z,6.80
2017-10-25T14:44:02.630Z,8.20
2017-10-25T14:46:29.045Z,8.17
2017-10-25T14:48:55.521Z,9.70
2017-10-25T14:51:22.664Z,8.77
2017-10-25T14:53:51.380Z,8.10
2017-10-25T14:56:17.843Z,9.57
2017-10-25T14:58:44.259Z,9.47
2017-10-25T15:01:10.721Z,9.03
2017-10-25T15:03:37.144Z,9.33
2017-10-25T15:06:03.663Z,9.30
2017-10-25T15:08:30.142Z,8.70
2017-10-25T15:10:56.673Z,9.63
2017-10-25T15:13:23.828Z,9.03
2017-10-25T15:15:51.029Z,9.23
2017-10-25T15:18:17.487Z,10.77
2017-10-25T15:20:44.141Z,11.07
2017-10-25T15:23:12.079Z,12.73
2017-10-25T15:25:38.513Z,13.10
2017-10-25T15:28:07.199Z,14.50
2017-10-25T15:30:33.662Z,16.47
2017-10-25T15:33:01.845Z,17.47
2017-10-25T15:35:30.054Z,17.60
2017-10-25T15:37:56.443Z,18.40
2017-10-25T15:40:23.620Z,18.33
2017-10-25T15:42:50.950Z,19.13
2017-10-25T15:45:17.456Z,22.53
2017-10-25T15:47:43.899Z,23.20
2017-10-25T15:50:10.351Z,21.20
2017-10-25T15:52:36.816Z,21.33
2017-10-25T15:55:04.422Z,24.30
2017-10-25T15:57:31.703Z,24.80
2017-10-25T15:59:58.096Z,22.30
2017-10-25T16:02:24.571Z,22.90
2017-10-25T16:04:51.680Z,25.27
2017-10-25T16:07:18.304Z,24.50
2017-10-25T16:09:45.445Z,22.97
2017-10-25T16:12:15.062Z,20.97
2017-10-25T16:14:43.478Z,19.70
2017-10-25T16:17:09.951Z,19.00
2017-10-25T16:19:36.387Z,19.50
2017-10-25T16:22:03.051Z,18.03
2017-10-25T16:24:29.776Z,18.07
2017-10-25T16:27:03.270Z,16.47
2017-10-25T16:29:30.159Z,16.50
2017-10-25T16:31:56.735Z,16.27
2017-10-25T16:34:24.827Z,17.70
2017-10-25T16:36:53.229Z,14.57
2017-10-25T16:39:20.221Z,16.30
2017-10-25T16:41:47.109Z,14.80
2017-10-25T16:44:14.467Z,14.17
2017-10-25T16:46:40.888Z,17.43
2017-10-25T16:49:07.966Z,16.93
2017-10-25T16:51:35.145Z,16.17
2017-10-25T16:54:02.405Z,17.30
2017-10-25T16:56:28.787Z,18.17
2017-10-25T16:58:58.501Z,17.93
2017-10-25T17:01:26.684Z,19.20
2017-10-25T17:03:53.096Z,22.63
2017-10-25T17:06:20.252Z,19.53
2017-10-25T17:08:46.645Z,18.17
2017-10-25T17:11:12.991Z,16.87
2017-10-25T17:13:40.140Z,18.83
2017-10-25T17:16:06.525Z,18.60
2017-10-25T17:18:32.888Z,19.20
2017-10-25T17:20:59.275Z,19.50
2017-10-25T17:23:25.646Z,17.63
2017-10-25T17:25:52.044Z,20.73
2017-10-25T17:28:18.407Z,21.97
2017-10-25T17:30:44.768Z,18.57
2017-10-25T17:33:11.916Z,21.07
2017-10-25T17:35:39.064Z,19.20
2017-10-25T17:38:05.432Z,21.07
2017-10-25T17:40:31.808Z,18.87
2017-10-25T17:42:58.161Z,20.67
2017-10-25T17:45:24.540Z,20.63
2017-10-25T17:47:50.918Z,23.10
2017-10-25T17:50:17.320Z,20.50
2017-10-25T17:52:43.681Z,27.27
2017-10-25T17:55:10.063Z,21.07
2017-10-25T17:57:36.433Z,25.07
2017-10-25T18:00:02.836Z,20.60
2017-10-25T18:02:29.941Z,23.57
2017-10-25T18:04:56.288Z,26.13
2017-10-25T18:07:22.673Z,27.67
2017-10-25T18:09:49.020Z,22.10
2017-10-25T18:12:16.178Z,29.07
2017-10-25T18:14:42.528Z,24.87
2017-10-25T18:17:09.662Z,27.47
2017-10-25T18:19:36.000Z,25.23
2017-10-25T18:22:02.361Z,29.30
2017-10-25T18:24:29.464Z,28.77
2017-10-25T18:26:55.839Z,30.30
2017-10-25T18:29:22.164Z,29.50
2017-10-25T18:31:49.285Z,34.27
2017-10-25T18:34:15.626Z,32.77
2017-10-25T18:36:41.998Z,33.50
2017-10-25T18:39:09.044Z,32.47
2017-10-25T18:41:35.391Z,34.00
2017-10-25T18:44:01.772Z,36.57
2017-10-25T18:46:28.111Z,34.00
2017-10-25T18:48:54.476Z,32.27
2017-10-25T18:51:20.835Z,32.10
2017-10-25T18:53:47.394Z,30.17
2017-10-25T18:56:13.756Z,28.73
2017-10-25T18:58:40.186Z,34.47
2017-10-25T19:01:07.262Z,31.80
2017-10-25T19:03:33.663Z,30.73
2017-10-25T19:05:59.988Z,36.43
2017-10-25T19:08:26.383Z,39.67
2017-10-25T19:10:53.451Z,35.73
2017-10-25T19:13:20.555Z,35.93
2017-10-25T19:15:46.872Z,37.60
2017-10-25T19:18:13.232Z,37.30
2017-10-25T19:20:39.555Z,35.07
2017-10-25T19:23:05.942Z,36.63
2017-10-25T19:25:32.303Z,32.47
2017-10-25T19:27:58.618Z,33.93
2017-10-25T19:30:25.739Z,35.00
2017-10-25T19:32:52.130Z,29.77
2017-10-25T19:35:18.506Z,26.80
2017-10-25T19:37:44.864Z,31.23
2017-10-25T19:40:11.222Z,26.33
2017-10-25T19:42:37.576Z,27.20
2017-10-25T19:45:03.982Z,26.37
2017-10-25T19:47:31.074Z,32.57
2017-10-25T19:49:57.430Z,35.40
2017-10-25T19:52:23.793Z,33.03
2017-10-25T19:54:50.148Z,29.87
2017-10-25T19:57:16.488Z,36.17
2017-10-25T19:59:42.851Z,36.63
2017-10-25T20:02:09.928Z,40.40
2017-10-25T20:04:36.446Z,36.17
2017-10-25T20:07:03.562Z,36.97
2017-10-25T20:09:30.717Z,36.20
2017-10-25T20:11:57.115Z,39.93
2017-10-25T20:14:23.671Z,42.87
2017-10-25T20:16:50.956Z,35.30
2017-10-25T20:19:17.320Z,38.17
2017-10-25T20:21:43.701Z,36.90
2017-10-25T20:24:10.076Z,41.10
2017-10-25T20:26:36.465Z,45.80
2017-10-25T20:29:03.595Z,41.80
2017-10-25T20:31:29.975Z,45.10
2017-10-25T20:33:56.376Z,41.87
2017-10-25T20:36:22.789Z,40.37
2017-10-25T20:38:49.224Z,44.20
2017-10-25T20:41:15.595Z,47.90
2017-10-25T20:43:42.921Z,43.77
2017-10-25T20:46:09.273Z,38.10
2017-10-25T20:48:35.647Z,32.70
2017-10-25T20:51:02.059Z,41.33
2017-10-25T20:53:28.405Z,40.00
2017-10-25T20:55:54.776Z,43.10
2017-10-25T20:58:21.167Z,50.50
2017-10-25T21:00:49.008Z,49.50
2017-10-25T21:03:15.376Z,51.93
2017-10-25T21:05:41.716Z,49.47
2017-10-25T21:08:08.067Z,49.30
2017-10-25T21:10:34.412Z,49.83
2017-10-25T21:13:00.805Z,46.13
2017-10-25T21:15:27.888Z,48.60
2017-10-25T21:17:54.272Z,45.57
2017-10-25T21:20:21.452Z,47.93
2017-10-25T21:22:47.989Z,47.93
2017-10-25T21:25:14.392Z,43.83
2017-10-25T21:27:40.786Z,54.73
2017-10-25T21:30:07.139Z,58.70
2017-10-25T21:32:34.324Z,51.47
2017-10-25T21:35:00.682Z,43.93
2017-10-25T21:37:27.328Z,45.97
2017-10-25T21:39:53.725Z,49.50
2017-10-25T21:42:20.078Z,48.73
2017-10-25T21:44:47.177Z,47.23
2017-10-25T21:47:13.582Z,43.53
2017-10-25T21:49:39.968Z,49.47
2017-10-25T21:52:06.320Z,46.00
2017-10-25T21:54:32.726Z,50.67
2017-10-25T21:56:59.151Z,48.80
2017-10-25T21:59:26.260Z,45.10
2017-10-25T22:01:52.669Z,52.47
2017-10-25T22:04:19.039Z,55.80
2017-10-25T22:06:45.404Z,53.23
2017-10-25T22:09:11.787Z,49.90
2017-10-25T22:11:38.209Z,49.60
2017-10-25T22:14:04.548Z,50.00
2017-10-25T22:16:30.885Z,51.33
2017-10-25T22:18:57.228Z,50.10
2017-10-25T22:21:23.571Z,44.20
2017-10-25T22:23:49.949Z,44.43
2017-10-25T22:26:16.360Z,47.20
2017-10-25T22:28:42.746Z,51.30
2017-10-25T22:31:09.820Z,45.80
2017-10-25T22:33:36.213Z,43.90
2017-10-25T22:36:02.590Z,41.40
2017-10-25T22:38:30.391Z,45.23
2017-10-25T22:40:56.756Z,50.07
2017-10-25T22:43:23.092Z,50.90
2017-10-25T22:45:49.478Z,50.37
2017-10-25T22:48:15.841Z,46.60
2017-10-25T22:50:42.940Z,47.97
2017-10-25T22:53:09.378Z,50.27
2017-10-25T22:55:35.764Z,51.90
2017-10-25T22:58:02.117Z,50.90
2017-10-25T23:00:28.451Z,51.37
2017-10-25T23:02:54.804Z,52.00
2017-10-25T23:05:21.920Z,50.17
2017-10-25T23:07:48.398Z,42.63
2017-10-25T23:10:14.790Z,43.70
2017-10-25T23:12:41.307Z,43.77
2017-10-25T23:15:07.668Z,43.03
2017-10-25T23:17:34.755Z,46.07
2017-10-25T23:20:01.143Z,40.03
2017-10-25T23:22:27.485Z,39.77
2017-10-25T23:24:53.837Z,45.37
2017-10-25T23:27:20.163Z,42.50
2017-10-25T23:29:46.514Z,39.30
2017-10-25T23:32:12.847Z,45.57
2017-10-25T23:34:39.227Z,40.47
2017-10-25T23:37:05.572Z,39.43
2017-10-25T23:39:32.679Z,44.20
2017-10-25T23:41:59.820Z,39.00
2017-10-25T23:44:26.971Z,43.50
2017-10-25T23:46:53.355Z,34.00
2017-10-25T23:49:19.696Z,42.43
2017-10-25T23:51:46.844Z,44.33
2017-10-25T23:54:13.201Z,43.80
2017-10-25T23:56:39.535Z,43.00
2017-10-25T23:59:05.888Z,43.47
